« Back
NWS Peachtree City, Ga » Text Product » AHN Terminal Aerodrome Forecast


Printer-friendly Version
Current Version              Previous Versions:   1  2  3  4  5  6  7  8  9  

Terminal Aerodrome Forecast

842
FTAK31 PAJN 241100
TAFAHN
TAF
PAHN 241134Z 2412/2512 09004KT P6SM -RA OVC015
     FM241500 VRB04KT P6SM VCSH SCT015 OVC040
     FM242100 30006KT P6SM SCT050
     FM250600 30003KT P6SM SCT100
      AMD LTD TO CLD VIS AND WIND=



USA.gov is the U.S. government's official web portal to all federal, state and local government web resources and services.